createdAt,value
2017-06-10T00:01:00.506Z,0
2017-06-10T00:02:09.291Z,0
2017-06-10T00:03:19.264Z,0
2017-06-10T00:04:28.332Z,0
2017-06-10T00:05:37.399Z,0
2017-06-10T00:06:46.781Z,0
2017-06-10T00:07:56.466Z,0
2017-06-10T00:09:05.233Z,0
2017-06-10T00:10:13.991Z,0
2017-06-10T00:11:23.057Z,0
2017-06-10T00:12:32.077Z,0
2017-06-10T00:13:41.146Z,0
2017-06-10T00:14:50.524Z,0
2017-06-10T00:15:59.533Z,0
2017-06-10T00:17:08.305Z,0
2017-06-10T00:18:17.069Z,0
2017-06-10T00:19:25.787Z,0
2017-06-10T00:20:34.863Z,0
2017-06-10T00:21:43.944Z,0
2017-06-10T00:22:53.625Z,0
2017-06-10T00:24:02.937Z,0
2017-06-10T00:25:11.638Z,0
2017-06-10T00:26:21.323Z,0
2017-06-10T00:27:30.089Z,0
2017-06-10T00:28:39.461Z,0
2017-06-10T00:29:48.468Z,0
2017-06-10T00:30:57.230Z,0
2017-06-10T00:32:05.996Z,0
2017-06-10T00:33:14.752Z,0
2017-06-10T00:34:23.820Z,0
2017-06-10T00:35:32.599Z,0
2017-06-10T00:36:41.616Z,0
2017-06-10T00:37:50.984Z,0
2017-06-10T00:39:00.006Z,0
2017-06-10T00:40:09.035Z,0
2017-06-10T00:41:18.685Z,0
2017-06-10T00:42:27.449Z,0
2017-06-10T00:43:36.215Z,0
2017-06-10T00:44:44.985Z,0
2017-06-10T00:45:54.080Z,0
2017-06-10T00:47:02.843Z,0
2017-06-10T00:48:11.607Z,0
2017-06-10T00:49:20.974Z,0
2017-06-10T00:50:29.978Z,0
2017-06-10T00:51:38.740Z,0
2017-06-10T00:52:47.824Z,0
2017-06-10T00:53:56.830Z,0
2017-06-10T00:55:06.219Z,0
2017-06-10T00:56:14.979Z,0
2017-06-10T00:57:23.736Z,0
2017-06-10T00:58:32.799Z,0
2017-06-10T00:59:41.494Z,0
2017-06-10T01:00:50.258Z,0
2017-06-10T01:01:59.334Z,0
2017-06-10T01:03:08.652Z,0
2017-06-10T01:04:17.413Z,0
2017-06-10T01:05:27.099Z,0
2017-06-10T01:06:35.865Z,0
2017-06-10T01:07:44.939Z,0
2017-06-10T01:08:53.940Z,0
2017-06-10T01:10:02.644Z,0
2017-06-10T01:11:11.407Z,0
2017-06-10T01:12:20.406Z,0
2017-06-10T01:13:29.824Z,0
2017-06-10T01:14:38.894Z,0
2017-06-10T01:15:47.983Z,0
2017-06-10T01:16:57.053Z,0
2017-06-10T01:18:06.129Z,0
2017-06-10T01:19:14.830Z,0
2017-06-10T01:20:23.899Z,0
2017-06-10T01:21:32.656Z,0
2017-06-10T01:22:41.349Z,0
2017-06-10T01:23:50.113Z,0
2017-06-10T01:24:58.811Z,0
2017-06-10T01:26:07.579Z,0
2017-06-10T01:27:16.579Z,0
2017-06-10T01:28:25.644Z,0
2017-06-10T01:29:34.710Z,0
2017-06-10T01:30:44.111Z,0
2017-06-10T01:31:52.805Z,0
2017-06-10T01:33:01.561Z,0
2017-06-10T01:34:10.257Z,0
2017-06-10T01:35:19.319Z,0
2017-06-10T01:36:28.080Z,0
2017-06-10T01:37:37.139Z,0
2017-06-10T01:38:46.516Z,0
2017-06-10T01:39:55.284Z,0
2017-06-10T01:41:04.053Z,0
2017-06-10T01:42:12.814Z,0
2017-06-10T01:43:22.461Z,0
2017-06-10T01:44:31.224Z,0
2017-06-10T01:45:40.285Z,0
2017-06-10T01:46:48.984Z,0
2017-06-10T01:47:57.755Z,0
2017-06-10T01:49:07.133Z,0
2017-06-10T01:50:16.208Z,0
2017-06-10T01:51:25.271Z,0
2017-06-10T01:52:34.178Z,0
2017-06-10T01:53:43.261Z,0
2017-06-10T01:54:52.635Z,0
2017-06-10T01:56:01.403Z,0
2017-06-10T01:57:10.173Z,0
2017-06-10T01:58:19.552Z,0
2017-06-10T01:59:28.613Z,0
2017-06-10T02:00:37.672Z,0
2017-06-10T02:01:46.437Z,0
2017-06-10T02:02:55.205Z,0
2017-06-10T02:04:04.513Z,0
2017-06-10T02:05:13.276Z,0
2017-06-10T02:06:22.353Z,0
2017-06-10T02:07:31.128Z,0
2017-06-10T02:08:39.890Z,0
2017-06-10T02:09:48.958Z,0
2017-06-10T02:10:58.019Z,0
2017-06-10T02:12:07.074Z,0
2017-06-10T02:13:15.836Z,0
2017-06-10T02:14:24.598Z,0
2017-06-10T02:15:33.362Z,0
2017-06-10T02:16:42.736Z,0
2017-06-10T02:17:51.491Z,0
2017-06-10T02:19:00.503Z,0
2017-06-10T02:20:09.575Z,0
2017-06-10T02:21:18.650Z,0
2017-06-10T02:22:28.028Z,0
2017-06-10T02:23:37.094Z,0
2017-06-10T02:24:46.159Z,0
2017-06-10T02:25:54.917Z,0
2017-06-10T02:27:04.231Z,0
2017-06-10T02:28:12.927Z,0
2017-06-10T02:29:21.999Z,0
2017-06-10T02:30:30.705Z,0
2017-06-10T02:31:42.184Z,0
2017-06-10T02:32:51.545Z,0
2017-06-10T02:34:00.901Z,0
2017-06-10T02:35:10.186Z,0
2017-06-10T02:36:19.238Z,0
2017-06-10T02:37:27.922Z,0
2017-06-10T02:38:37.279Z,0
2017-06-10T02:39:46.034Z,0
2017-06-10T02:40:55.379Z,0
2017-06-10T02:42:04.131Z,0
2017-06-10T02:43:12.879Z,0
2017-06-10T02:44:21.642Z,0
2017-06-10T02:45:30.699Z,0
2017-06-10T02:46:39.984Z,0
2017-06-10T02:47:49.018Z,0
2017-06-10T02:48:58.365Z,0
2017-06-10T02:50:07.731Z,0
2017-06-10T02:51:16.485Z,0
2017-06-10T02:52:25.748Z,0
2017-06-10T02:53:34.424Z,0
2017-06-10T02:54:43.468Z,0
2017-06-10T02:55:52.216Z,0
2017-06-10T02:57:01.266Z,0
2017-06-10T02:58:10.245Z,0
2017-06-10T02:59:18.989Z,0
2017-06-10T03:00:28.040Z,0
2017-06-10T03:01:36.798Z,0
2017-06-10T03:02:45.883Z,0
2017-06-10T03:03:54.931Z,0
2017-06-10T03:05:03.974Z,0
2017-06-10T03:06:13.027Z,0
2017-06-10T03:07:22.080Z,0
2017-06-10T03:08:30.834Z,0
2017-06-10T03:09:39.893Z,0
2017-06-10T03:10:48.965Z,0
2017-06-10T03:11:58.312Z,0
2017-06-10T03:13:07.345Z,0
2017-06-10T03:14:16.392Z,0
2017-06-10T03:15:25.450Z,0
2017-06-10T03:16:35.097Z,0
2017-06-10T03:17:43.846Z,0
2017-06-10T03:18:52.900Z,0
2017-06-10T03:20:02.533Z,0
2017-06-10T03:21:12.496Z,0
2017-06-10T03:22:21.547Z,0
2017-06-10T03:23:31.135Z,0
2017-06-10T03:24:40.121Z,0
2017-06-10T03:25:49.181Z,0
2017-06-10T03:26:58.400Z,0
2017-06-10T03:28:07.393Z,0
2017-06-10T03:29:16.436Z,0
2017-06-10T03:30:25.820Z,0
2017-06-10T03:31:34.655Z,0
2017-06-10T03:32:43.402Z,0
2017-06-10T03:33:52.755Z,0
2017-06-10T03:35:01.811Z,0
2017-06-10T03:36:10.797Z,0
2017-06-10T03:37:19.849Z,0
2017-06-10T03:38:28.597Z,0
2017-06-10T03:39:37.281Z,0
2017-06-10T03:40:46.570Z,0
2017-06-10T03:41:55.326Z,0
2017-06-10T03:43:04.085Z,0
2017-06-10T03:44:12.834Z,0
2017-06-10T03:45:22.186Z,0
2017-06-10T03:46:31.841Z,0
2017-06-10T03:47:40.884Z,0
2017-06-10T03:48:49.939Z,0
2017-06-10T03:49:58.619Z,0
2017-06-10T03:51:07.302Z,0
2017-06-10T03:52:16.353Z,0
2017-06-10T03:53:25.636Z,5
2017-06-10T03:54:34.395Z,5
2017-06-10T03:55:43.375Z,5
2017-06-10T03:56:52.425Z,5
2017-06-10T03:58:01.175Z,5
2017-06-10T03:59:09.951Z,5
2017-06-10T04:00:18.635Z,5
2017-06-10T04:01:27.318Z,5
2017-06-10T04:02:36.697Z,5
2017-06-10T04:03:45.385Z,5
2017-06-10T04:04:54.134Z,5
2017-06-10T04:06:02.895Z,5
2017-06-10T04:07:11.637Z,5
2017-06-10T04:08:20.392Z,5
2017-06-10T04:09:29.136Z,5
2017-06-10T04:10:37.882Z,5
2017-06-10T04:11:47.170Z,5
2017-06-10T04:12:57.131Z,5
2017-06-10T04:14:05.825Z,5
2017-06-10T04:15:14.859Z,5
2017-06-10T04:16:23.846Z,5
2017-06-10T04:17:32.836Z,5
2017-06-10T04:18:41.589Z,5
2017-06-10T04:19:50.645Z,5
2017-06-10T04:20:59.393Z,5
2017-06-10T04:22:08.149Z,5
2017-06-10T04:23:17.192Z,5
2017-06-10T04:24:25.937Z,5
2017-06-10T04:25:34.684Z,5
2017-06-10T04:26:43.427Z,5
2017-06-10T04:27:52.178Z,5
2017-06-10T04:29:01.533Z,5
2017-06-10T04:30:10.523Z,5
2017-06-10T04:31:19.273Z,5
2017-06-10T04:32:27.959Z,5
2017-06-10T04:33:37.009Z,5
2017-06-10T04:34:46.044Z,10
2017-06-10T04:35:55.056Z,10
2017-06-10T04:37:04.401Z,10
2017-06-10T04:38:13.157Z,10
2017-06-10T04:39:22.203Z,10
2017-06-10T04:40:30.887Z,10
2017-06-10T04:41:39.633Z,10
2017-06-10T04:42:48.684Z,10
2017-06-10T04:43:57.735Z,10
2017-06-10T04:45:06.798Z,10
2017-06-10T04:46:16.162Z,10
2017-06-10T04:47:24.923Z,10
2017-06-10T04:48:33.991Z,10
2017-06-10T04:49:42.715Z,10
2017-06-10T04:50:51.480Z,10
2017-06-10T04:52:00.230Z,10
2017-06-10T04:53:09.272Z,10
2017-06-10T04:54:18.334Z,10
2017-06-10T04:55:27.078Z,10
2017-06-10T04:56:36.232Z,15
2017-06-10T04:57:44.974Z,15
2017-06-10T04:58:54.347Z,15
2017-06-10T05:00:03.340Z,15
2017-06-10T05:01:12.391Z,15
2017-06-10T05:02:21.676Z,15
2017-06-10T05:03:30.972Z,15
2017-06-10T05:04:39.964Z,15
2017-06-10T05:05:49.316Z,15
2017-06-10T05:06:58.066Z,15
2017-06-10T05:08:07.419Z,15
2017-06-10T05:09:16.468Z,15
2017-06-10T05:10:25.213Z,15
2017-06-10T05:11:34.095Z,15
2017-06-10T05:12:43.140Z,15
2017-06-10T05:13:51.886Z,15
2017-06-10T05:15:00.936Z,15
2017-06-10T05:16:10.305Z,15
2017-06-10T05:17:19.067Z,15
2017-06-10T05:18:28.154Z,15
2017-06-10T05:19:37.444Z,15
2017-06-10T05:20:46.506Z,15
2017-06-10T05:21:55.553Z,20
2017-06-10T05:23:04.307Z,20
2017-06-10T05:24:13.052Z,20
2017-06-10T05:25:22.103Z,20
2017-06-10T05:26:30.859Z,20
2017-06-10T05:27:40.217Z,20
2017-06-10T05:28:49.512Z,20
2017-06-10T05:29:58.257Z,20
2017-06-10T05:31:07.612Z,20
2017-06-10T05:32:16.906Z,20
2017-06-10T05:33:25.651Z,20
2017-06-10T05:34:34.653Z,20
2017-06-10T05:35:43.715Z,20
2017-06-10T05:36:52.771Z,20
2017-06-10T05:38:01.526Z,20
2017-06-10T05:39:10.574Z,20
2017-06-10T05:40:19.252Z,20
2017-06-10T05:41:28.346Z,20
2017-06-10T05:42:37.095Z,25
2017-06-10T05:43:46.149Z,25
2017-06-10T05:44:55.208Z,25
2017-06-10T05:46:03.888Z,25
2017-06-10T05:47:12.635Z,25
2017-06-10T05:48:21.683Z,25
2017-06-10T05:49:30.698Z,25
2017-06-10T05:50:39.447Z,25
2017-06-10T05:51:48.506Z,25
2017-06-10T05:52:57.251Z,25
2017-06-10T05:54:06.303Z,25
2017-06-10T05:55:15.668Z,25
2017-06-10T05:56:24.459Z,25
2017-06-10T05:57:33.516Z,25
2017-06-10T05:58:42.264Z,30
2017-06-10T05:59:51.619Z,30
2017-06-10T06:01:00.396Z,30
2017-06-10T06:02:09.743Z,30
2017-06-10T06:03:18.491Z,30
2017-06-10T06:04:27.545Z,30
2017-06-10T06:05:36.295Z,30
2017-06-10T06:06:45.061Z,30
2017-06-10T06:07:53.771Z,30
2017-06-10T06:09:02.813Z,30
2017-06-10T06:10:11.560Z,30
2017-06-10T06:11:20.915Z,30
2017-06-10T06:12:29.965Z,30
2017-06-10T06:13:38.711Z,30
2017-06-10T06:14:47.754Z,35
2017-06-10T06:15:56.802Z,35
2017-06-10T06:17:05.495Z,35
2017-06-10T06:18:14.497Z,35
2017-06-10T06:19:23.546Z,35
2017-06-10T06:20:32.503Z,35
2017-06-10T06:21:41.246Z,35
2017-06-10T06:22:50.305Z,35
2017-06-10T06:23:59.673Z,35
2017-06-10T06:25:08.736Z,35
2017-06-10T06:26:18.693Z,35
2017-06-10T06:27:27.436Z,35
2017-06-10T06:28:36.494Z,35
2017-06-10T06:29:45.858Z,35
2017-06-10T06:30:54.917Z,35
2017-06-10T06:32:03.660Z,40
2017-06-10T06:33:12.413Z,40
2017-06-10T06:34:21.136Z,40
2017-06-10T06:35:29.891Z,40
2017-06-10T06:36:38.648Z,40
2017-06-10T06:37:47.713Z,40
2017-06-10T06:38:56.463Z,40
2017-06-10T06:40:05.212Z,40
2017-06-10T06:41:13.955Z,40
2017-06-10T06:42:22.699Z,40
2017-06-10T06:43:31.443Z,40
2017-06-10T06:44:40.135Z,40
2017-06-10T06:45:49.120Z,40
2017-06-10T06:46:58.473Z,40
2017-06-10T06:48:07.450Z,40
2017-06-10T06:49:16.195Z,40
2017-06-10T06:50:24.955Z,40
2017-06-10T06:51:33.707Z,40
2017-06-10T06:52:43.058Z,40
2017-06-10T06:53:52.116Z,40
2017-06-10T06:55:01.172Z,40
2017-06-10T06:56:10.520Z,40
2017-06-10T06:57:19.557Z,40
2017-06-10T06:58:28.545Z,45
2017-06-10T06:59:37.602Z,45
2017-06-10T07:00:46.366Z,45
2017-06-10T07:01:55.725Z,45
2017-06-10T07:03:04.710Z,45
2017-06-10T07:04:13.459Z,45
2017-06-10T07:05:22.219Z,45
2017-06-10T07:06:31.274Z,45
2017-06-10T07:07:40.029Z,45
2017-06-10T07:08:49.400Z,45
2017-06-10T07:09:58.187Z,45
2017-06-10T07:11:07.236Z,45
2017-06-10T07:12:15.921Z,45
2017-06-10T07:13:24.681Z,45
2017-06-10T07:14:33.433Z,45
2017-06-10T07:15:42.764Z,45
2017-06-10T07:16:52.098Z,40
2017-06-10T07:18:00.853Z,45
2017-06-10T07:19:09.910Z,45
2017-06-10T07:20:18.660Z,45
2017-06-10T07:21:27.348Z,45
2017-06-10T07:22:36.093Z,45
2017-06-10T07:23:45.459Z,45
2017-06-10T07:24:54.813Z,45
2017-06-10T07:26:03.560Z,45
2017-06-10T07:27:12.938Z,45
2017-06-10T07:28:21.681Z,45
2017-06-10T07:29:30.438Z,45
2017-06-10T07:30:39.767Z,45
2017-06-10T07:31:49.130Z,45
2017-06-10T07:32:58.193Z,45
2017-06-10T07:34:06.936Z,45
2017-06-10T07:35:15.687Z,45
2017-06-10T07:36:24.433Z,45
2017-06-10T07:37:33.485Z,50
2017-06-10T07:38:42.547Z,45
2017-06-10T07:39:51.605Z,45
2017-06-10T07:41:01.267Z,45
2017-06-10T07:42:10.023Z,45
2017-06-10T07:43:18.719Z,50
2017-06-10T07:44:28.013Z,50
2017-06-10T07:45:36.767Z,50
2017-06-10T07:46:45.760Z,50
2017-06-10T07:47:54.800Z,50
2017-06-10T07:49:03.849Z,50
2017-06-10T07:50:13.200Z,50
2017-06-10T07:51:22.867Z,50
2017-06-10T07:52:32.217Z,50
2017-06-10T07:53:40.894Z,50
2017-06-10T07:54:49.653Z,50
2017-06-10T07:55:59.014Z,50
2017-06-10T07:57:07.773Z,50
2017-06-10T07:58:16.845Z,50
2017-06-10T07:59:25.591Z,50
2017-06-10T08:00:34.645Z,50
2017-06-10T08:01:43.407Z,50
2017-06-10T08:02:52.397Z,50
2017-06-10T08:04:01.757Z,50
2017-06-10T08:05:10.518Z,50
2017-06-10T08:06:19.576Z,50
2017-06-10T08:07:28.886Z,50
2017-06-10T08:08:37.938Z,50
2017-06-10T08:09:47.532Z,50
2017-06-10T08:10:56.285Z,50
2017-06-10T08:12:05.638Z,50
2017-06-10T08:13:14.405Z,50
2017-06-10T08:14:23.469Z,50
2017-06-10T08:15:33.065Z,50
2017-06-10T08:16:42.328Z,50
2017-06-10T08:17:51.086Z,55
2017-06-10T08:19:00.147Z,55
2017-06-10T08:20:09.197Z,55
2017-06-10T08:21:18.241Z,55
2017-06-10T08:22:26.997Z,55
2017-06-10T08:23:36.259Z,55
2017-06-10T08:24:45.557Z,55
2017-06-10T08:25:54.630Z,55
2017-06-10T08:27:03.362Z,55
2017-06-10T08:28:12.339Z,55
2017-06-10T08:29:21.702Z,55
2017-06-10T08:30:30.760Z,55
2017-06-10T08:31:40.128Z,55
2017-06-10T08:32:49.416Z,55
2017-06-10T08:33:58.451Z,55
2017-06-10T08:35:07.182Z,55
2017-06-10T08:36:15.928Z,55
2017-06-10T08:37:24.987Z,55
2017-06-10T08:38:33.739Z,55
2017-06-10T08:39:42.798Z,55
2017-06-10T08:40:51.551Z,55
2017-06-10T08:42:00.602Z,55
2017-06-10T08:43:09.656Z,55
2017-06-10T08:44:18.646Z,55
2017-06-10T08:45:28.012Z,55
2017-06-10T08:46:36.700Z,55
2017-06-10T08:47:46.086Z,55
2017-06-10T08:48:54.829Z,55
2017-06-10T08:50:03.877Z,55
2017-06-10T08:51:12.936Z,55
2017-06-10T08:52:21.929Z,55
2017-06-10T08:53:31.007Z,55
2017-06-10T08:54:40.063Z,55
2017-06-10T08:55:48.753Z,55
2017-06-10T08:56:57.497Z,55
2017-06-10T08:58:06.537Z,60
2017-06-10T08:59:15.282Z,60
2017-06-10T09:00:24.008Z,55
2017-06-10T09:01:33.045Z,55
2017-06-10T09:02:41.784Z,55
2017-06-10T09:03:50.770Z,55
2017-06-10T09:05:00.625Z,55
2017-06-10T09:06:09.377Z,55
2017-06-10T09:07:18.443Z,55
2017-06-10T09:08:27.506Z,55
2017-06-10T09:09:36.557Z,55
2017-06-10T09:10:45.309Z,60
2017-06-10T09:41:06.800Z,80
2017-06-10T09:42:15.849Z,85
2017-06-10T09:43:24.899Z,85
2017-06-10T09:44:33.968Z,100
2017-06-10T09:45:43.328Z,110
2017-06-10T09:46:52.013Z,115
2017-06-10T09:48:00.801Z,130
2017-06-10T09:49:09.552Z,130
2017-06-10T09:50:18.599Z,120
2017-06-10T09:51:27.355Z,115
2017-06-10T09:52:36.411Z,125
2017-06-10T09:53:45.400Z,120
2017-06-10T09:54:54.750Z,125
2017-06-10T09:56:03.727Z,125
2017-06-10T09:57:13.388Z,120
2017-06-10T09:58:22.138Z,120
2017-06-10T09:59:31.493Z,115
2017-06-10T10:00:40.845Z,105
2017-06-10T10:01:50.210Z,100
2017-06-10T10:02:59.259Z,110
2017-06-10T10:04:07.950Z,100
2017-06-10T10:05:16.999Z,115
2017-06-10T10:06:26.064Z,120
2017-06-10T10:07:35.135Z,120
2017-06-10T10:08:44.505Z,100
2017-06-10T10:09:53.269Z,115
2017-06-10T10:11:02.021Z,125
2017-06-10T10:12:11.068Z,125
2017-06-10T10:13:20.424Z,140
2017-06-10T10:14:29.415Z,150
2017-06-10T10:15:38.397Z,140
2017-06-10T10:16:47.755Z,105
2017-06-10T10:17:56.503Z,80
2017-06-10T10:19:05.260Z,70
2017-06-10T10:20:14.006Z,65
2017-06-10T10:21:23.060Z,60
2017-06-10T10:22:31.808Z,60
2017-06-10T10:23:41.117Z,60
2017-06-10T10:24:50.176Z,60
2017-06-10T10:25:59.229Z,60
2017-06-10T10:27:07.918Z,60
2017-06-10T10:28:16.666Z,70
2017-06-10T10:29:25.411Z,100
2017-06-10T10:30:34.168Z,125
2017-06-10T10:31:43.516Z,150
2017-06-10T10:32:52.604Z,155
2017-06-10T10:34:01.655Z,165
2017-06-10T10:35:10.411Z,170
2017-06-10T10:36:19.765Z,165
2017-06-10T10:37:28.820Z,165
2017-06-10T10:38:37.876Z,170
2017-06-10T10:39:47.167Z,170
2017-06-10T10:40:56.210Z,170
2017-06-10T10:42:05.279Z,185
2017-06-10T10:43:14.022Z,185
2017-06-10T10:44:23.068Z,175
2017-06-10T10:45:32.430Z,175
2017-06-10T10:46:41.175Z,175
2017-06-10T10:47:50.232Z,165
2017-06-10T10:48:58.916Z,155
2017-06-10T10:50:07.668Z,155
2017-06-10T10:51:16.421Z,170
2017-06-10T10:52:25.473Z,180
2017-06-10T10:53:34.836Z,180
2017-06-10T10:54:43.898Z,175
2017-06-10T10:55:52.956Z,180
2017-06-10T10:57:02.012Z,175
2017-06-10T10:58:10.765Z,170
2017-06-10T10:59:19.820Z,185
2017-06-10T11:00:29.170Z,180
2017-06-10T11:01:37.916Z,175
2017-06-10T11:02:46.898Z,145
2017-06-10T11:03:55.951Z,120
2017-06-10T11:05:05.311Z,105
2017-06-10T11:06:14.381Z,105
2017-06-10T11:07:23.146Z,90
2017-06-10T11:08:32.209Z,85
2017-06-10T11:09:41.263Z,75
2017-06-10T11:10:50.021Z,110
2017-06-10T11:11:58.767Z,130
2017-06-10T11:13:07.731Z,160
2017-06-10T11:14:16.420Z,155
2017-06-10T11:15:25.177Z,135
2017-06-10T11:16:34.535Z,155
2017-06-10T11:17:43.526Z,125
2017-06-10T11:18:52.285Z,115
2017-06-10T11:20:01.347Z,85
2017-06-10T11:21:10.405Z,95
2017-06-10T11:22:19.185Z,110
2017-06-10T11:23:28.854Z,125
2017-06-10T11:24:37.911Z,140
2017-06-10T11:25:46.974Z,160
2017-06-10T11:26:56.339Z,155
2017-06-10T11:28:05.400Z,155
2017-06-10T11:29:14.459Z,160
2017-06-10T11:30:23.152Z,160
2017-06-10T11:31:31.898Z,145
2017-06-10T11:32:40.964Z,135
2017-06-10T11:33:50.008Z,145
2017-06-10T11:34:58.763Z,160
2017-06-10T11:36:07.512Z,165
2017-06-10T11:37:16.537Z,165
2017-06-10T11:38:25.597Z,155
2017-06-10T11:39:34.643Z,120
2017-06-10T11:40:44.008Z,90
2017-06-10T11:41:53.062Z,80
2017-06-10T11:43:02.056Z,70
2017-06-10T11:44:11.404Z,85
2017-06-10T11:45:20.155Z,100
2017-06-10T11:46:28.897Z,70
2017-06-10T11:47:38.357Z,60
2017-06-10T11:48:47.103Z,80
2017-06-10T11:49:56.164Z,80
2017-06-10T11:51:05.223Z,95
2017-06-10T11:52:13.976Z,115
2017-06-10T11:53:23.043Z,120
2017-06-10T11:54:32.395Z,115
2017-06-10T11:55:41.751Z,115
2017-06-10T11:56:50.806Z,125
2017-06-10T11:57:59.581Z,120
2017-06-10T11:59:08.569Z,120
2017-06-10T12:00:17.624Z,125
2017-06-10T12:01:26.679Z,145
2017-06-10T12:02:35.672Z,150
2017-06-10T12:03:45.027Z,150
2017-06-10T12:04:53.782Z,145
2017-06-10T12:06:02.550Z,125
2017-06-10T12:07:11.600Z,130
2017-06-10T12:08:20.346Z,120
2017-06-10T12:09:29.111Z,120
2017-06-10T12:10:38.108Z,125
2017-06-10T12:11:47.476Z,125
2017-06-10T12:12:56.839Z,135
2017-06-10T12:14:06.196Z,135
2017-06-10T12:15:14.955Z,125
2017-06-10T12:16:24.008Z,120
2017-06-10T12:17:32.757Z,120
2017-06-10T12:18:42.041Z,105
2017-06-10T12:19:50.773Z,90
2017-06-10T12:20:59.527Z,95
2017-06-10T12:22:08.583Z,115
2017-06-10T12:23:18.189Z,110
2017-06-10T12:24:27.238Z,115
2017-06-10T12:25:36.300Z,125
2017-06-10T12:26:45.656Z,120
2017-06-10T12:27:54.737Z,115
2017-06-10T12:29:03.480Z,115
2017-06-10T12:30:12.559Z,110
2017-06-10T12:31:21.251Z,110
2017-06-10T12:32:30.004Z,110
2017-06-10T12:33:38.756Z,105
2017-06-10T12:34:47.745Z,105
2017-06-10T12:35:56.461Z,90
2017-06-10T12:37:05.523Z,85
2017-06-10T12:38:14.814Z,85
2017-06-10T12:39:23.865Z,70
2017-06-10T12:40:32.666Z,70
2017-06-10T12:41:41.705Z,75
2017-06-10T12:42:50.452Z,70
2017-06-10T12:43:59.812Z,90
2017-06-10T12:45:08.869Z,85
2017-06-10T12:46:18.237Z,95
2017-06-10T12:47:26.983Z,105
2017-06-10T12:48:36.337Z,110
2017-06-10T12:49:45.639Z,100
2017-06-10T12:50:54.325Z,95
2017-06-10T12:52:03.913Z,85
2017-06-10T12:53:12.946Z,80
2017-06-10T12:54:21.700Z,95
2017-06-10T12:55:30.447Z,100
2017-06-10T12:56:39.803Z,100
2017-06-10T12:57:49.168Z,80
2017-06-10T12:58:57.924Z,90
2017-06-10T13:00:06.676Z,105
2017-06-10T13:01:15.429Z,120
2017-06-10T13:02:24.185Z,120
2017-06-10T13:03:33.042Z,115
2017-06-10T13:04:41.806Z,90
2017-06-10T13:05:50.552Z,90
2017-06-10T13:06:59.337Z,80
2017-06-10T13:08:08.401Z,65
2017-06-10T13:09:17.165Z,60
2017-06-10T13:10:26.520Z,50
2017-06-10T13:11:35.219Z,50
2017-06-10T13:12:44.610Z,50
2017-06-10T13:13:53.365Z,45
2017-06-10T13:15:02.430Z,40
2017-06-10T13:16:11.186Z,50
2017-06-10T13:17:20.236Z,50
2017-06-10T13:18:29.525Z,55
2017-06-10T13:19:38.293Z,55
2017-06-10T13:20:47.006Z,65
2017-06-10T13:21:56.331Z,65
2017-06-10T13:23:05.103Z,80
2017-06-10T13:24:14.092Z,80
2017-06-10T13:25:23.134Z,80
2017-06-10T13:26:31.889Z,80
2017-06-10T13:27:40.649Z,75
2017-06-10T13:28:49.669Z,75
2017-06-10T13:29:58.754Z,75
2017-06-10T13:31:07.502Z,80
2017-06-10T13:32:17.478Z,90
2017-06-10T13:33:26.234Z,75
2017-06-10T13:34:34.988Z,60
2017-06-10T13:35:44.046Z,55
2017-06-10T13:36:52.803Z,65
2017-06-10T13:38:02.091Z,70
2017-06-10T13:39:11.452Z,80
2017-06-10T13:40:20.182Z,90
2017-06-10T13:41:29.234Z,85
2017-06-10T13:42:38.286Z,60
2017-06-10T13:43:47.350Z,50
2017-06-10T13:44:56.339Z,55
2017-06-10T13:46:05.392Z,50
2017-06-10T13:47:14.143Z,45
2017-06-10T13:48:22.891Z,45
2017-06-10T13:49:31.653Z,40
2017-06-10T13:50:40.650Z,45
2017-06-10T13:51:49.663Z,45
2017-06-10T13:52:58.417Z,55
2017-06-10T13:54:07.470Z,60
2017-06-10T13:55:16.224Z,55
2017-06-10T13:56:24.978Z,50
2017-06-10T13:57:33.664Z,55
2017-06-10T13:58:43.018Z,60
2017-06-10T13:59:51.769Z,65
2017-06-10T14:01:00.527Z,65
2017-06-10T14:02:09.594Z,65
2017-06-10T14:03:18.878Z,65
2017-06-10T14:04:27.937Z,70
2017-06-10T14:05:36.688Z,50
2017-06-10T14:06:45.739Z,45
2017-06-10T14:07:54.493Z,40
2017-06-10T14:09:03.578Z,35
2017-06-10T14:10:12.631Z,35
2017-06-10T14:11:21.352Z,35
2017-06-10T14:12:30.120Z,40
2017-06-10T14:13:38.872Z,30
2017-06-10T14:14:48.192Z,35
2017-06-10T14:15:56.885Z,30
2017-06-10T14:17:06.246Z,35
2017-06-10T14:18:15.299Z,30
2017-06-10T14:19:23.984Z,35
2017-06-10T14:20:33.038Z,35
2017-06-10T14:21:42.603Z,40
2017-06-10T14:22:52.569Z,40
2017-06-10T14:24:01.617Z,45
2017-06-10T14:25:10.369Z,45
2017-06-10T14:26:19.660Z,45
2017-06-10T14:27:28.706Z,40
2017-06-10T14:28:37.653Z,40
2017-06-10T14:29:46.694Z,35
2017-06-10T14:30:56.051Z,45
2017-06-10T14:32:04.808Z,40
2017-06-10T14:33:13.539Z,40
2017-06-10T14:34:22.596Z,40
2017-06-10T14:35:31.661Z,40
2017-06-10T14:36:40.711Z,45
2017-06-10T14:37:49.995Z,50
2017-06-10T14:38:58.753Z,45
2017-06-10T14:40:07.805Z,45
2017-06-10T14:41:16.545Z,45
2017-06-10T14:42:25.291Z,50
2017-06-10T14:43:34.042Z,45
2017-06-10T14:44:43.707Z,45
2017-06-10T14:45:52.469Z,35
2017-06-10T14:47:01.765Z,30
2017-06-10T14:48:10.512Z,35
2017-06-10T14:49:19.876Z,35
2017-06-10T14:50:28.932Z,35
2017-06-10T14:51:37.982Z,35
2017-06-10T14:52:47.343Z,35
2017-06-10T14:53:56.085Z,35
2017-06-10T14:55:05.073Z,30
2017-06-10T14:56:13.819Z,25
2017-06-10T14:57:22.540Z,20
2017-06-10T14:58:31.629Z,20
2017-06-10T14:59:40.679Z,20
2017-06-10T15:00:49.667Z,20
2017-06-10T15:01:58.421Z,20
2017-06-10T15:03:07.477Z,20
2017-06-10T15:04:16.232Z,25
2017-06-10T15:05:25.296Z,20
2017-06-10T15:06:34.355Z,25
2017-06-10T15:07:43.417Z,20
2017-06-10T15:08:52.199Z,30
2017-06-10T15:10:01.149Z,20
2017-06-10T15:11:09.906Z,25
2017-06-10T15:12:18.657Z,25
2017-06-10T15:13:27.421Z,25
2017-06-10T15:14:36.477Z,25
2017-06-10T15:15:45.536Z,25
2017-06-10T15:16:54.216Z,25
2017-06-10T15:18:03.208Z,25
2017-06-10T15:19:11.896Z,25
2017-06-10T15:20:20.680Z,25
2017-06-10T15:21:29.434Z,20
2017-06-10T15:22:38.383Z,15
2017-06-10T15:23:47.439Z,20
2017-06-10T15:24:56.186Z,25
2017-06-10T15:26:04.946Z,25
2017-06-10T15:27:13.697Z,25
2017-06-10T15:28:22.753Z,25
2017-06-10T15:29:32.142Z,25
2017-06-10T15:30:41.496Z,25
2017-06-10T15:31:50.560Z,25
2017-06-10T15:32:59.650Z,25
2017-06-10T15:34:08.716Z,25
2017-06-10T15:35:17.770Z,25
2017-06-10T15:36:27.066Z,20
2017-06-10T15:37:35.816Z,25
2017-06-10T15:38:45.488Z,25
2017-06-10T15:39:55.143Z,25
2017-06-10T15:41:04.124Z,25
2017-06-10T15:42:13.176Z,30
2017-06-10T15:43:22.239Z,25
2017-06-10T15:44:30.991Z,25
2017-06-10T15:45:39.988Z,25
2017-06-10T15:46:48.736Z,25
2017-06-10T15:47:58.028Z,25
2017-06-10T15:49:07.083Z,20
2017-06-10T15:50:16.148Z,20
2017-06-10T15:51:25.204Z,20
2017-06-10T15:52:33.949Z,25
2017-06-10T15:53:42.704Z,20
2017-06-10T15:54:51.464Z,20
2017-06-10T15:56:00.757Z,20
2017-06-10T15:57:09.814Z,20
2017-06-10T15:58:18.868Z,20
2017-06-10T15:59:27.609Z,20
2017-06-10T16:00:36.973Z,25
2017-06-10T16:01:45.721Z,25
2017-06-10T16:02:55.077Z,25
2017-06-10T16:04:04.407Z,25
2017-06-10T16:05:13.457Z,20
2017-06-10T16:06:22.212Z,25
2017-06-10T16:07:31.578Z,25
2017-06-10T16:08:40.929Z,25
2017-06-10T16:09:50.290Z,30
2017-06-10T16:10:59.274Z,30
2017-06-10T16:12:08.331Z,25
2017-06-10T16:13:17.998Z,25
2017-06-10T16:14:27.359Z,25
2017-06-10T16:15:36.712Z,25
2017-06-10T16:16:45.698Z,25
2017-06-10T16:17:54.446Z,25
2017-06-10T16:19:03.194Z,25
2017-06-10T16:20:12.251Z,25
2017-06-10T16:21:21.316Z,20
2017-06-10T16:22:30.675Z,20
2017-06-10T16:23:40.030Z,20
2017-06-10T16:24:48.786Z,20
2017-06-10T16:25:57.476Z,20
2017-06-10T16:27:06.832Z,20
2017-06-10T16:28:15.614Z,20
2017-06-10T16:29:24.667Z,20
2017-06-10T16:30:33.421Z,20
2017-06-10T16:31:42.477Z,20
2017-06-10T16:32:51.537Z,20
2017-06-10T16:34:01.190Z,20
2017-06-10T16:35:10.264Z,20
2017-06-10T16:36:19.624Z,20
2017-06-10T16:37:29.289Z,20
2017-06-10T16:38:38.640Z,20
2017-06-10T16:39:48.230Z,20
2017-06-10T16:40:57.217Z,20
2017-06-10T16:42:05.972Z,15
2017-06-10T16:43:14.654Z,15
2017-06-10T16:44:23.717Z,15
2017-06-10T16:45:32.464Z,15
2017-06-10T16:46:41.166Z,15
2017-06-10T16:47:50.217Z,15
2017-06-10T16:48:58.974Z,15
2017-06-10T16:50:07.734Z,15
2017-06-10T16:51:17.087Z,15
2017-06-10T16:52:25.839Z,15
2017-06-10T16:53:34.828Z,15
2017-06-10T16:54:44.116Z,15
2017-06-10T16:55:52.871Z,15
2017-06-10T16:57:01.873Z,15
2017-06-10T16:58:10.946Z,15